ADDS METAR Data INFO
IDs: Format: Raw Decoded Include TAF

Data at: 2054 UTC 26 May 2017

K5C1 262035Z AUTO 17006KT 10SM OVC033 28/22 A2989 RMK AO1
K5C1 262015Z AUTO 21006KT 10SM SCT027 OVC034 28/21 A2990 RMK AO1
K5C1 261955Z AUTO 19005KT 10SM SCT023 OVC035 28/21 A2990 RMK AO1
K5C1 261935Z AUTO 16005KT 10SM SCT023 SCT028 OVC035 27/21 A2991 RMK AO1
K5C1 261915Z AUTO 20005KT 10SM SCT021 BKN030 OVC035 27/21 A2991 RMK AO1
K5C1 261855Z AUTO 17006KT 10SM SCT016 BKN021 OVC031 26/22 A2991 RMK AO1
K5C1 261815Z AUTO 18004KT 10SM OVC014 25/22 A2993 RMK AO1
K5C1 261755Z AUTO 20007KT 7SM OVC014 24/22 A2992 RMK AO1
K5C1 261735Z AUTO 19006KT 7SM BKN012 OVC018 25/22 A2993 RMK AO1
K5C1 261715Z AUTO 18005KT 7SM OVC012 24/22 A2993 RMK AO1
K5C1 261655Z AUTO 19007KT 7SM OVC012 24/22 A2993 RMK AO1
K5C1 261635Z AUTO 18006KT 140V210 7SM OVC010 23/22 A2992 RMK AO1
K5C1 261615Z AUTO 19006KT 7SM OVC010 23/22 A2991 RMK AO1
K5C1 261555Z AUTO 19005KT 5SM OVC008 23/22 A2991 RMK AO1
K5C1 261535Z AUTO 19005KT 5SM OVC006 23/22 A2991 RMK AO1
K5C1 261520Z AUTO 19005KT 4SM OVC004 23/22 A2990 RMK AO1
K5C1 261455Z AUTO 17006KT 2SM OVC004 22/22 A2990 RMK AO1
K5C1 261435Z AUTO 17007KT 140V200 1 1/2SM OVC004 22/22 A2990 RMK AO1
K5C1 261415Z AUTO 17007KT 1 1/4SM OVC004 22/22 A2989 RMK AO1
K5C1 261355Z AUTO 17005KT 1 1/4SM OVC004 22/22 A2989 RMK AO1
K5C1 261335Z AUTO 17006KT 1 1/4SM OVC004 22/22 A2989 RMK AO1
K5C1 261315Z AUTO 18005KT 1SM OVC004 22/22 A2988 RMK AO1
K5C1 261255Z AUTO 18005KT 1SM OVC004 22/21 A2988 RMK AO1
K5C1 261235Z AUTO 17005KT 1 1/4SM OVC004 22/21 A2988 RMK AO1
K5C1 261215Z AUTO 17005KT 1SM OVC004 22/21 A2987 RMK AO1
K5C1 261155Z AUTO 17005KT 1SM OVC004 22/21 A2986 RMK AO1
K5C1 261135Z AUTO 18006KT 2SM OVC004 22/21 A2985 RMK AO1
K5C1 261115Z AUTO 18007KT 2 1/2SM OVC004 22/21 A2985 RMK AO1
K5C1 261055Z AUTO 19007KT 3SM OVC004 22/21 A2984 RMK AO1
K5C1 261035Z AUTO 18005KT 2 1/2SM OVC004 22/21 A2983 RMK AO1
K5C1 261015Z AUTO 18007KT 3SM OVC006 22/21 A2983 RMK AO1
K5C1 260955Z AUTO 18006G14KT 5SM OVC008 22/21 A2982 RMK AO1
K5C1 260935Z AUTO 19007KT 7SM OVC010 23/21 A2982 RMK AO1
K5C1 260915Z AUTO 18011G14KT 10SM OVC010 23/21 A2981 RMK AO1
K5C1 260855Z AUTO 19006KT 10SM OVC014 23/21 A2981 RMK AO1
K5C1 260835Z AUTO 18008KT 10SM OVC014 23/21 A2980 RMK AO1
K5C1 260815Z AUTO 19008KT 10SM OVC014 23/21 A2981 RMK AO1
K5C1 260755Z AUTO 19009KT 10SM OVC014 23/21 A2981 RMK AO1
K5C1 260735Z AUTO 19008G15KT 10SM OVC011 23/21 A2981 RMK AO1
K5C1 260715Z AUTO 19008KT 7SM OVC007 22/21 A2982 RMK AO1
K5C1 260655Z AUTO 19011G14KT 7SM OVC007 22/21 A2982 RMK AO1
K5C1 260635Z AUTO 18009KT 7SM OVC007 22/21 A2981 RMK AO1
K5C1 260615Z AUTO 18009G15KT 10SM OVC007 22/21 A2982 RMK AO1
K5C1 260555Z AUTO 18008KT 10SM OVC009 22/21 A2982 RMK AO1
K5C1 260535Z AUTO 18010G16KT 10SM OVC009 23/21 A2982 RMK AO1
K5C1 260515Z AUTO 17012G16KT 10SM OVC011 23/21 A2981 RMK AO1
K5C1 260455Z AUTO 18010KT 10SM OVC011 23/21 A2981 RMK AO1
K5C1 260435Z AUTO 17010KT 10SM OVC013 23/21 A2981 RMK AO1
K5C1 260415Z AUTO 16011G15KT 10SM OVC015 23/21 A2981 RMK AO1
K5C1 260355Z AUTO 17010G15KT 10SM SCT015 23/20 A2980 RMK AO1
K5C1 260335Z AUTO 16005KT 10SM CLR 24/20 A2979 RMK AO1
K5C1 260315Z AUTO 17007G16KT 10SM CLR 25/20 A2978 RMK AO1
K5C1 260255Z AUTO 16011G19KT 10SM CLR 25/20 A2976 RMK AO1
K5C1 260235Z AUTO 16009G17KT 10SM CLR 25/20 A2976 RMK AO1
K5C1 260215Z AUTO 15008KT 10SM CLR 26/20 A2975 RMK AO1
K5C1 260155Z AUTO 16009G14KT 140V200 10SM CLR 27/20 A2974 RMK AO1
K5C1 260135Z AUTO 16009G16KT 10SM CLR 27/19 A2974 RMK AO1
K5C1 260115Z AUTO 16008G15KT 10SM CLR 28/18 A2974 RMK AO1
K5C1 260055Z AUTO 17009KT 10SM CLR 29/18 A2974 RMK AO1
K5C1 260035Z AUTO 17011G15KT 10SM CLR 30/17 A2974 RMK AO1
K5C1 260015Z AUTO 16010G16KT 10SM CLR 31/17 A2973 RMK AO1
K5C1 252355Z AUTO 17011G16KT 10SM CLR 31/16 A2972 RMK AO1
K5C1 252335Z AUTO 17013G18KT 10SM CLR 32/16 A2972 RMK AO1
K5C1 252315Z AUTO 18009G19KT 150V210 10SM CLR 32/16 A2972 RMK AO1
K5C1 252255Z AUTO 16012G17KT 10SM CLR 32/16 A2973 RMK AO1
K5C1 252235Z AUTO 18010G17KT 10SM CLR 32/16 A2973 RMK AO1
K5C1 252215Z AUTO 19011G17KT 10SM CLR 32/16 A2973 RMK AO1
K5C1 252155Z AUTO 17012G18KT 10SM CLR 32/16 A2974 RMK AO1
K5C1 252135Z AUTO 18014G20KT 10SM CLR 31/16 A2975 RMK AO1
K5C1 252115Z AUTO 19011KT 10SM CLR 31/16 A2975 RMK AO1
K5C1 252055Z AUTO 18011G19KT 10SM CLR 31/16 A2976 RMK AO1
K5C1 252035Z AUTO 17013G19KT 10SM CLR 31/16 A2977 RMK AO1
K5C1 252015Z AUTO 20011G17KT 10SM CLR 31/16 A2977 RMK AO1
K5C1 251955Z AUTO 18012G18KT 10SM CLR 30/16 A2978 RMK AO1
K5C1 251935Z AUTO 18010G17KT 10SM CLR 31/16 A2979 RMK AO1
K5C1 251915Z AUTO 18014G17KT 10SM CLR 30/16 A2979 RMK AO1
K5C1 251855Z AUTO 18010G18KT 140V220 10SM CLR 29/16 A2980 RMK AO1
K5C1 251835Z AUTO 20010G17KT 160V220 10SM CLR 29/16 A2981 RMK AO1
K5C1 251815Z AUTO 19013G19KT 10SM CLR 28/15 A2981 RMK AO1
K5C1 251755Z AUTO 19010G18KT 10SM CLR 27/15 A2981 RMK AO1
K5C1 251735Z AUTO 18011G20KT 10SM CLR 27/14 A2981 RMK AO1
K5C1 251715Z AUTO 19013G17KT 10SM CLR 27/13 A2982 RMK AO1
K5C1 251655Z AUTO 20014G20KT 10SM CLR 26/13 A2982 RMK AO1
K5C1 251635Z AUTO 18014G22KT 10SM CLR 26/12 A2982 RMK AO1
K5C1 251615Z AUTO 19014G20KT 10SM CLR 25/12 A2982 RMK AO1
K5C1 251555Z AUTO 19016G23KT 10SM CLR 24/10 A2982 RMK AO1
K5C1 251535Z AUTO 19014G19KT 10SM CLR 23/10 A2983 RMK AO1
K5C1 251515Z AUTO 20014G19KT 10SM CLR 23/10 A2984 RMK AO1
K5C1 251455Z AUTO 19014G22KT 10SM CLR 22/10 A2984 RMK AO1
K5C1 251435Z AUTO 19012G20KT 10SM CLR 21/11 A2984 RMK AO1
K5C1 251415Z AUTO 20013G17KT 10SM CLR 21/12 A2984 RMK AO1
K5C1 251355Z AUTO 21012G20KT 10SM CLR 20/11 A2984 RMK AO1
K5C1 251335Z AUTO 20014G24KT 10SM CLR 20/12 A2984 RMK AO1
K5C1 251315Z AUTO 21015G20KT 10SM CLR 18/11 A2984 RMK AO1
K5C1 251255Z AUTO 20011G16KT 10SM CLR 18/10 A2984 RMK AO1
K5C1 251235Z AUTO 20011G16KT 10SM CLR 17/10 A2983 RMK AO1
K5C1 251215Z AUTO 20007KT 10SM CLR 17/09 A2982 RMK AO1
K5C1 251155Z AUTO 20010KT 10SM CLR 16/09 A2982 RMK AO1
K5C1 251135Z AUTO 20007KT 10SM CLR 16/09 A2981 RMK AO1
K5C1 251115Z AUTO 20007KT 10SM CLR 16/08 A2980 RMK AO1
K5C1 251055Z AUTO 20009KT 10SM CLR 16/09 A2980 RMK AO1
K5C1 251035Z AUTO 20007KT 10SM CLR 17/08 A2979 RMK AO1
K5C1 251015Z AUTO 18007KT 10SM CLR 16/09 A2979 RMK AO1
K5C1 250955Z AUTO 19007KT 10SM CLR 17/09 A2979 RMK AO1
K5C1 250935Z AUTO 19008G14KT 10SM CLR 17/09 A2979 RMK AO1
K5C1 250915Z AUTO 19011G15KT 10SM CLR 17/10 A2978 RMK AO1
K5C1 250855Z AUTO 19010G14KT 10SM CLR 17/10 A2978 RMK AO1


Page loaded:  20:54 UTC  |   01:54 PM Pacific  |   02:54 PM Mountain  |   03:54 PM Central  |   04:54 PM Eastern

 

ADVISORIES

FORECASTS

FORECASTS

OBSERVATIONS

USER TOOLS

ABOUT US